Flight Track Log - Related Links

Times and Time Zones

All times are in EDT time to prevent confusion due to time zone crossing. See the SWA350 flight status page for this flight to view local times or setup timezone preferences in your user account.

Time Position Orientation Groundspeed Altitude Reporting Facility
EDT Latitude Longitude Course Direction KTS MPH feet Rate Location/Type
Tue 09:10:54 AM 29.9881 -90.2406 93° East 156 180 1,200  Level Houston Center
Tue 09:11:55 AM 29.9869 -90.1797 91° East 314 361 3,200 2,000 Climbing Houston Center
Tue 09:12:57 AM 30.0442 -90.1978 345° North 267 307 5,300 2,613 Climbing Houston Center
Tue 09:13:59 AM 30.0839 -90.2756 301° West 276 318 8,600 2,634 Climbing Houston Center
Tue 09:15:00 AM 30.1253 -90.3525 302° West 281 323 10,700 2,146 Climbing Houston Center
Tue 09:16:02 AM 30.1789 -90.4469 303° West 347 399 13,000 2,613 Climbing Houston Center
Tue 09:17:04 AM 30.2369 -90.5394 306° West 353 406 16,100 2,634 Climbing Houston Center
Tue 09:18:05 AM 30.3117 -90.6522 308° West 367 422 18,400 2,390 Climbing Houston Center
Tue 09:19:07 AM 30.3803 -90.7456 310° West 378 435 21,000 1,984 Climbing Houston Center
Tue 09:20:09 AM 30.4478 -90.8406 310° West 382 440 22,500 1,561 Climbing Houston Center
Tue 09:21:10 AM 30.5197 -90.9394 310° West 398 458 24,200 1,512 Climbing Houston Center
Tue 09:22:12 AM 30.5775 -91.0517 301° West 410 472 25,600 1,707 Climbing Houston Center
Tue 09:23:13 AM 30.6314 -91.1667 299° West 407 468 27,700 2,098 Climbing Houston Center
Tue 09:24:15 AM 30.6842 -91.2783 299° West 395 455 29,900 1,790 Climbing Houston Center
Tue 09:25:17 AM 30.7444 -91.4047 299° West 386 444 31,400 1,512 Climbing Houston Center
Tue 09:26:18 AM 30.7997 -91.5172 300° West 396 456 33,000 1,512 Climbing Houston Center
Tue 09:27:20 AM 30.8508 -91.6269 299° West 390 449 34,500 1,463 Climbing Houston Center
Tue 09:28:21 AM 30.9014 -91.7342 299° West 380 437 36,000 732 Climbing Houston Center
Tue 09:29:23 AM 30.9525 -91.8444 298° West 383 441 36,000  Level Houston Center
Tue 09:30:24 AM 31.0053 -91.9589 298° West 395 455 36,000  Level Houston Center
Tue 09:31:26 AM 31.0686 -92.0939 299° West 396 456 36,000  Level Houston Center
Tue 09:32:28 AM 31.1203 -92.2061 298° West 393 452 36,000  Level Houston Center
Tue 09:33:29 AM 31.1711 -92.3161 298° West 388 447 36,000  Level Houston Center
Tue 09:34:31 AM 31.2225 -92.4286 298° West 389 448 36,000  Level Houston Center
Tue 09:35:33 AM 31.2781 -92.5417 300° West 396 456 36,000  Level Houston Center
Tue 09:36:34 AM 31.3200 -92.6564 293° West 389 448 36,000  Level Houston Center
Tue 09:37:36 AM 31.3636 -92.7833 292° West 390 449 36,000  Level Houston Center
Tue 09:38:38 AM 31.4069 -92.8978 294° West 386 444 36,000  Level Houston Center
Tue 09:39:39 AM 31.4500 -93.0117 294° West 384 442 36,000  Level Houston Center
Tue 09:40:41 AM 31.4925 -93.1269 293° West 385 443 36,000  Level Houston Center
Tue 09:41:43 AM 31.5358 -93.2417 294° West 385 443 36,000  Level Houston Center
Tue 09:42:44 AM 31.5858 -93.3783 293° West 383 441 36,000  Level Houston Center
Tue 09:43:46 AM 31.6289 -93.4931 294° West 384 442 36,000  Level Houston Center
Tue 09:44:39 AM 31.6628 -93.5914 292° West 389 448 36,000  Level Fort Worth Center
Tue 09:45:39 AM 31.7036 -93.7044 293° West 389 448 36,000  Level Fort Worth Center
Tue 09:46:39 AM 31.7406 -93.8225 290° West 389 448 36,000  Level Fort Worth Center
Tue 09:47:39 AM 31.7814 -93.9383 293° West 389 448 36,000  Level Fort Worth Center
Tue 09:48:39 AM 31.8244 -94.0614 292° West 377 434 36,000  Level Fort Worth Center
Tue 09:49:39 AM 31.8631 -94.1797 291° West 377 434 36,000  Level Fort Worth Center
Tue 09:50:39 AM 31.9033 -94.2958 292° West 382 440 36,000  Level Fort Worth Center
Tue 09:51:39 AM 31.9439 -94.4119 292° West 382 440 36,000  Level Fort Worth Center
Tue 09:52:39 AM 31.9800 -94.5308 290° West 382 440 36,000  Level Fort Worth Center
Tue 09:53:39 AM 32.0203 -94.6469 292° West 382 440 36,000  Level Fort Worth Center
Tue 09:54:39 AM 32.0581 -94.7636 291° West 387 445 36,000  Level Fort Worth Center
Tue 09:55:39 AM 32.0939 -94.8778 290° West 381 438 36,000 -50 Level Fort Worth Center
Tue 09:56:39 AM 32.1336 -94.9894 293° West 376 433 35,900 -1,500 Descending Fort Worth Center
Tue 09:57:39 AM 32.1714 -95.1064 291° West 376 433 33,000 -2,900 Descending Fort Worth Center
Tue 09:58:39 AM 32.2089 -95.2208 291° West 376 433 30,100 -2,650 Descending Fort Worth Center
Tue 09:59:39 AM 32.2444 -95.3378 290° West 381 438 27,700 -2,300 Descending Fort Worth Center
Tue 10:00:39 AM 32.2839 -95.4547 292° West 386 444 25,500 -1,850 Descending Fort Worth Center
Tue 10:01:39 AM 32.3189 -95.5672 290° West 378 435 24,000 -1,250 Descending Fort Worth Center
Tue 10:02:39 AM 32.3536 -95.6647 293° West 373 429 23,000 -1,950 Descending Fort Worth Center
Tue 10:03:39 AM 32.3908 -95.7822 291° West 373 429 20,100 -3,267 Descending Fort Worth Center
Tue 10:05:39 AM 32.4667 -96.0319 290° West 386 444 13,200 -3,067 Descending Fort Worth Center
Tue 10:06:39 AM 32.5014 -96.1447 290° West 386 444 10,900 -1,450 Descending Fort Worth Center
Tue 10:07:39 AM 32.5314 -96.2356 291° West 355 409 10,300 -900 Descending Fort Worth Center
Tue 10:08:39 AM 32.5636 -96.3339 291° West 306 352 9,100 -1,050 Descending Fort Worth Center
Tue 10:09:39 AM 32.6039 -96.4047 304° West 287 330 8,200 -1,350 Descending Fort Worth Center
Tue 10:10:39 AM 32.6525 -96.4906 304° West 287 330 6,400 -1,600 Descending Fort Worth Center
Tue 10:11:39 AM 32.6989 -96.5542 311° West 286 329 5,000 -700 Descending Fort Worth Center
Tue 10:12:39 AM 32.7661 -96.6203 320° Northwest 281 323 5,000  Level Fort Worth Center
Tue 10:13:39 AM 32.8144 -96.6744 317° Northwest 281 323 5,000 -950 Level Fort Worth Center
Tue 10:14:39 AM 32.8733 -96.7456 315° West 275 316 3,100 -1,075 Descending Fort Worth Center
Tue 10:15:25 AM 32.9167 -96.8000 313° West 260 299 3,100 -60 Level Dallas / Fort Worth TRACON
Tue 10:16:19 AM 32.9333 -96.8500 292° West 234 269 3,000 -500 Descending Dallas / Fort Worth TRACON
Tue 10:17:25 AM 32.9333 -96.9167 270° West 193 222 2,100 -667 Descending Dallas / Fort Worth TRACON
Tue 10:18:25 AM 32.8833 -96.9000 164° South 156 180 1,600 -632 Descending Dallas / Fort Worth TRACON
Tue 10:19:19 AM 32.8667 -96.8833 140° Southeast 134 154 900 -778 Descending Dallas / Fort Worth TRACON
Tue 10:22:00 AM 32.8471 -96.8518 140° Southeast  Level Estimated

Login

Don't have an account? Register now (free) for customized features, flight alerts, and more!